PST,Max TemperatureF,Mean TemperatureF,Min TemperatureF,Max Dew PointF,MeanDew PointF,Min DewpointF,Max Humidity, Mean Humidity, Min Humidity, Max Sea Level PressureIn, Mean Sea Level PressureIn, Min Sea Level PressureIn, Max VisibilityMiles, Mean VisibilityMiles, Min VisibilityMiles, Max Wind SpeedMPH, Mean Wind SpeedMPH, Max Gust SpeedMPH,PrecipitationIn, CloudCover, Events, WindDirDegrees
2012-2-1,69,52,34,27,22,16,50,33,17,30.14,30.06,29.94,10,10,10,25,6,33,0.00,1,,264
2012-2-2,61,44,28,28,15,5,75,33,13,30.12,30.07,30.00,10,10,10,9,5,,0.00,0,,164
2012-2-3,60,43,26,12,9,5,43,28,14,30.18,30.14,30.09,10,10,10,14,5,22,0.00,0,,169
2012-2-4,61,42,24,18,14,9,55,36,19,30.23,30.17,30.12,10,10,10,13,6,,0.00,0,,179
2012-2-5,62,44,25,18,15,11,58,36,16,30.22,30.14,30.07,10,10,10,9,6,,0.00,0,,181
2012-2-6,59,42,25,16,14,11,58,34,17,30.17,30.10,30.04,10,10,10,9,4,,0.00,5,,219
2012-2-7,59,49,39,42,26,14,93,51,17,30.12,30.03,29.94,10,10,9,17,5,28,0.07,7,Rain,236
2012-2-8,64,50,37,40,35,33,89,63,31,30.27,30.18,30.11,10,10,10,8,4,,0.00,1,,207
2012-2-9,72,51,30,34,29,22,89,50,15,30.31,30.23,30.16,10,10,10,9,4,,0.00,0,,193
2012-2-10,75,54,32,32,26,20,100,40,12,30.19,30.06,29.90,10,10,10,22,5,32,0.00,0,,226
2012-2-11,64,54,44,32,29,27,53,38,28,29.88,29.85,29.81,10,10,10,17,11,23,0.00,0,,242
2012-2-12,,,,,,,,,,,,,,,,,,,,,,
2012-2-13,55,48,41,36,23,16,54,37,25,29.80,29.75,29.70,10,10,10,38,21,48,0.00,1,,228
2012-2-14,62,45,28,29,23,18,66,43,21,30.00,29.89,29.80,10,10,10,21,6,28,0.00,2,,186
2012-2-15,55,29,3,33,25,17,73,47,24,30.09,29.92,29.85,10,10,9,29,13,37,0.00,3,,281
2012-2-16,63,53,37,26,17,11,51,27,15,30.21,30.14,30.08,10,10,10,25,16,38,0.00,2,,331
2012-2-17,64,46,27,17,10,3,51,27,9,30.24,30.17,30.11,10,10,10,10,5,,0.00,0,,208
2012-2-18,64,46,28,29,19,9,46,31,19,30.12,29.98,29.86,10,10,10,18,4,23,0.00,0,,274
2012-2-19,60,48,37,28,22,16,54,34,18,30.04,29.92,29.84,10,10,10,15,9,23,0.00,1,,208
2012-2-20,57,44,32,24,20,15,61,42,22,30.16,30.09,30.02,10,10,10,10,3,,0.00,0,,202
2012-2-21,66,47,28,22,19,15,63,36,17,30.27,30.21,30.17,10,10,10,10,3,,0.00,4,,159
2012-2-22,77,59,41,30,25,18,55,35,11,30.24,30.11,29.95,10,10,10,10,3,,0.00,4,,181
2012-2-23,78,58,37,26,19,11,58,28,8,30.01,29.93,29.86,10,10,10,12,6,,0.00,2,,168
2012-2-24,72,54,37,17,11,5,38,20,8,30.20,30.10,30.03,10,10,10,10,5,,0.00,0,,187
2012-2-25,75,60,46,29,23,16,34,23,13,30.01,29.92,29.84,10,10,10,26,12,37,0.00,0,,231
2012-2-26,66,52,37,14,-1,-12,34,13,4,30.02,29.89,29.73,10,10,10,16,7,,0.00,0,,161
2012-2-27,59,52,45,33,26,20,54,39,26,29.77,29.71,29.67,10,10,10,22,14,33,0.00,5,,198
2012-2-28,59,46,34,24,20,16,59,36,20,30.10,30.02,29.78,10,10,10,16,7,25,0.00,1,,194
2012-2-29,63,52,42,32,25,16,45,35,25,30.08,30.00,29.92,10,10,6,33,14,48,0.00,1,,216